Weerpagina Nieuwendam Historical Data
 
Daily Summary for March 04, 2024 Units:  Metric    English   Both
Daily Weekly Monthly Yearly
  Current: High: Low: Average:
Temperature: 5.9 °C 13.6 °C 5.9 °C 8.9 °C
Dew Point: 4.9 °C 7.3 °C 3.9 °C 5.9 °C
Humidity: 93% 94% 53.3% 83%
Wind Speed: 0km/h 19.1km/h 0km/h 7.6km/h
Wind Gust: 0km/h 27.4km/h - -
WindCalm - - SW
Pressure: 1011.8 hPa 1012.0 hPa 1005.8 hPa -
Precipitation: 0.0 mm      
 
 
Tabular Data for March 04, 2024
Time Temperature Dew Point Pressure Wind Wind Speed Wind Gust Humidity Rainfall Rate (Hourly) solar
00:04 8.3 °C 7.3 °C 1005.8 hPa West 10.4 km/h 22.5 km/h 93% 0.0 mm 0 W/m2
00:09 8.3 °C 7.3 °C 1005.9 hPa SW 15.8 km/h 10.8 km/h 93% 0.0 mm 0 W/m2
00:14 8.3 °C 7.2 °C 1006.0 hPa WSW 16.1 km/h 14.8 km/h 93% 0.0 mm 0 W/m2
00:19 8.2 °C 7.2 °C 1006.1 hPa West 15.8 km/h 20.9 km/h 93% 0.0 mm 0 W/m2
00:24 8.2 °C 7.2 °C 1006.1 hPa WNW 16.9 km/h 15.1 km/h 93% 0.0 mm 0 W/m2
00:29 8.2 °C 7.2 °C 1006.2 hPa West 12.4 km/h 8.5 km/h 93% 0.0 mm 0 W/m2
00:34 8.2 °C 7.2 °C 1006.2 hPa West 11.6 km/h 22.5 km/h 93% 0.0 mm 0 W/m2
00:39 8.2 °C 7.2 °C 1006.3 hPa West 19.1 km/h 11.9 km/h 93% 0.0 mm 0 W/m2
00:44 8.2 °C 7.2 °C 1006.4 hPa WNW 13.6 km/h 11.6 km/h 93% 0.0 mm 0 W/m2
00:49 8.2 °C 7.2 °C 1006.4 hPa WSW 13 km/h 22.5 km/h 93% 0.0 mm 0 W/m2
00:54 8.2 °C 7.2 °C 1006.5 hPa WSW 13.7 km/h 10.3 km/h 93.4% 0.0 mm 0 W/m2
00:59 8.2 °C 7.3 °C 1006.5 hPa WNW 12.9 km/h 11.4 km/h 94% 0.0 mm 0 W/m2
01:04 8.2 °C 7.3 °C 1006.7 hPa West 14.7 km/h 11.6 km/h 94% 0.0 mm 0 W/m2
01:09 8.1 °C 7.2 °C 1006.7 hPa WSW 10.3 km/h 7.6 km/h 94% 0.0 mm 0 W/m2
01:14 8.1 °C 7.2 °C 1006.6 hPa West 15.2 km/h 12.6 km/h 94% 0.0 mm 0 W/m2
01:19 8.1 °C 7.2 °C 1006.7 hPa West 15 km/h 20.9 km/h 94% 0.0 mm 0 W/m2
01:24 8.1 °C 7.2 °C 1006.7 hPa WNW 17.4 km/h 14.6 km/h 94% 0.0 mm 0 W/m2
01:29 8.1 °C 7.2 °C 1006.8 hPa West 14.3 km/h 12.2 km/h 94% 0.0 mm 0 W/m2
01:34 8.1 °C 7.2 °C 1006.9 hPa West 12.8 km/h 9.2 km/h 94% 0.0 mm 0 W/m2
01:39 8.1 °C 7.2 °C 1007.0 hPa West 13.7 km/h 10.5 km/h 94% 0.0 mm 0 W/m2
01:44 8 °C 7.1 °C 1007.0 hPa WNW 13.9 km/h 12.6 km/h 94% 0.0 mm 0 W/m2
01:49 7.9 °C 6.9 °C 1007.0 hPa West 15.7 km/h 22.5 km/h 93% 0.0 mm 0 W/m2
01:54 7.9 °C 6.9 °C 1007.0 hPa West 15.1 km/h 16.3 km/h 93% 0.0 mm 0 W/m2
01:59 7.9 °C 6.8 °C 1006.9 hPa WSW 15.7 km/h 12.2 km/h 93% 0.0 mm 0 W/m2
02:04 7.9 °C 6.8 °C 1006.9 hPa West 16.2 km/h 12.6 km/h 93% 0.0 mm 0 W/m2
02:09 7.9 °C 6.8 °C 1007.0 hPa WNW 12.8 km/h 11.3 km/h 93% 0.0 mm 0 W/m2
02:14 7.8 °C 6.8 °C 1007.0 hPa West 11.6 km/h 10.3 km/h 93% 0.0 mm 0 W/m2
02:19 7.8 °C 6.8 °C 1007.0 hPa West 17.9 km/h 27.4 km/h 93% 0.0 mm 0 W/m2
02:24 7.8 °C 6.8 °C 1007.0 hPa WNW 12.1 km/h 12.4 km/h 93% 0.0 mm 0 W/m2
02:29 7.8 °C 6.8 °C 1007.1 hPa West 13.7 km/h 11.3 km/h 93% 0.0 mm 0 W/m2
02:34 7.8 °C 6.8 °C 1007.0 hPa WNW 14.6 km/h 11.6 km/h 93% 0.0 mm 0 W/m2
02:39 7.8 °C 6.7 °C 1007.2 hPa WNW 16.5 km/h 11.7 km/h 92.8% 0.0 mm 0 W/m2
02:44 7.9 °C 6.7 °C 1007.2 hPa WNW 18.9 km/h 15.3 km/h 92% 0.0 mm 0 W/m2
02:49 7.9 °C 6.7 °C 1007.2 hPa WNW 12.1 km/h 11.3 km/h 92% 0.0 mm 0 W/m2
02:54 7.9 °C 6.7 °C 1007.4 hPa West 11.9 km/h 11.7 km/h 92% 0.0 mm 0 W/m2
02:59 7.9 °C 6.7 °C 1007.4 hPa West 14.3 km/h 12.7 km/h 92% 0.0 mm 0 W/m2
03:04 7.9 °C 6.7 °C 1007.4 hPa West 12.3 km/h 10.9 km/h 92% 0.0 mm 0 W/m2
03:09 7.9 °C 6.7 °C 1007.5 hPa WNW 14.3 km/h 12.6 km/h 92% 0.0 mm 0 W/m2
03:14 7.8 °C 6.6 °C 1007.5 hPa WNW 12 km/h 9.5 km/h 92% 0.0 mm 0 W/m2
03:19 7.8 °C 6.6 °C 1007.6 hPa West 8.7 km/h 20.9 km/h 92% 0.0 mm 0 W/m2
03:24 7.8 °C 6.6 °C 1007.6 hPa West 12.2 km/h 9.7 km/h 92% 0.0 mm 0 W/m2
03:28 7.8 °C 6.6 °C 1007.7 hPa West 14.3 km/h 10.6 km/h 92% 0.0 mm 0 W/m2
03:34 7.8 °C 6.6 °C 1007.9 hPa West 11.3 km/h 9.5 km/h 92% 0.0 mm 0 W/m2
03:39 7.7 °C 6.5 °C 1007.9 hPa WNW 13.8 km/h 9.3 km/h 92% 0.0 mm 0 W/m2
03:44 7.7 °C 6.5 °C 1008.0 hPa West 11.9 km/h 8.5 km/h 92% 0.0 mm 0 W/m2
03:49 7.7 °C 6.4 °C 1008.0 hPa WNW 9.1 km/h 7.9 km/h 92% 0.0 mm 0 W/m2
03:54 7.6 °C 6.3 °C 1008.1 hPa West 12.1 km/h 10.9 km/h 91.6% 0.0 mm 0 W/m2
03:58 7.6 °C 6.2 °C 1008.3 hPa West 10.1 km/h 8.4 km/h 91% 0.0 mm 0 W/m2
04:04 7.6 °C 6.2 °C 1008.3 hPa WNW 9.7 km/h 7.2 km/h 91% 0.0 mm 0 W/m2
04:09 7.6 °C 6.2 °C 1008.4 hPa West 12 km/h 9.2 km/h 91% 0.0 mm 0 W/m2
04:14 7.6 °C 6.2 °C 1008.4 hPa WNW 15 km/h 11.1 km/h 91% 0.0 mm 0 W/m2
04:19 7.6 °C 6.2 °C 1008.5 hPa West 9.2 km/h 19.3 km/h 91% 0.0 mm 0 W/m2
04:24 7.6 °C 6.2 °C 1008.6 hPa WNW 6.7 km/h 6.8 km/h 91% 0.0 mm 0 W/m2
04:29 7.6 °C 6.2 °C 1008.5 hPa WNW 12.4 km/h 11.3 km/h 91% 0.0 mm 0 W/m2
04:34 7.6 °C 6 °C 1008.6 hPa WNW 13.2 km/h 10.6 km/h 90% 0.0 mm 0 W/m2
04:39 7.6 °C 6 °C 1008.6 hPa WNW 14.6 km/h 14.3 km/h 90% 0.0 mm 0 W/m2
04:44 7.6 °C 6 °C 1008.7 hPa West 14.7 km/h 10.9 km/h 90% 0.0 mm 0 W/m2
04:48 7.5 °C 6 °C 1008.6 hPa WNW 14.1 km/h 10 km/h 90% 0.0 mm 0 W/m2
04:54 7.5 °C 5.9 °C 1008.6 hPa WNW 9.6 km/h 9.7 km/h 90% 0.0 mm 0 W/m2
04:59 7.5 °C 5.9 °C 1008.7 hPa WNW 7.1 km/h 6.9 km/h 90% 0.0 mm 0 W/m2
05:03 7.5 °C 5.9 °C 1008.7 hPa West 9.9 km/h 19.3 km/h 90% 0.0 mm 0 W/m2
05:09 7.5 °C 5.9 °C 1008.7 hPa West 10.3 km/h 9.2 km/h 90% 0.0 mm 0 W/m2
05:14 7.5 °C 5.9 °C 1008.7 hPa NW 7.4 km/h 6.6 km/h 90% 0.0 mm 0 W/m2
05:19 7.4 °C 5.9 °C 1008.8 hPa WNW 6.1 km/h 11.3 km/h 90% 0.0 mm 0 W/m2
05:24 7.4 °C 5.9 °C 1008.9 hPa West 7.8 km/h 6.4 km/h 90% 0.0 mm 0 W/m2
05:29 7.4 °C 5.9 °C 1008.9 hPa West 9.4 km/h 6.3 km/h 90% 0.0 mm 0 W/m2
05:34 7.4 °C 5.9 °C 1009.1 hPa West 8.7 km/h 16.1 km/h 90% 0.0 mm 0 W/m2
05:39 7.4 °C 5.8 °C 1009.1 hPa West 8.2 km/h 7.6 km/h 90% 0.0 mm 0 W/m2
05:44 7.3 °C 5.8 °C 1009.2 hPa West 8.5 km/h 7.6 km/h 90% 0.0 mm 0 W/m2
05:49 7.3 °C 5.8 °C 1009.3 hPa West 8.2 km/h 11.3 km/h 90% 0.0 mm 0 W/m2
05:54 7.3 °C 5.7 °C 1009.2 hPa West 7.6 km/h 5.1 km/h 90% 0.0 mm 0 W/m2
05:59 7.3 °C 5.7 °C 1009.3 hPa WNW 5.7 km/h 4.8 km/h 90% 0.0 mm 0 W/m2
06:04 7.2 °C 5.7 °C 1009.3 hPa NW 6.7 km/h 9.7 km/h 90% 0.0 mm 0 W/m2
06:09 7.2 °C 5.7 °C 1009.2 hPa WNW 4.3 km/h 3.2 km/h 90% 0.0 mm 0 W/m2
06:14 7.2 °C 5.7 °C 1009.3 hPa WNW 5.1 km/h 4.8 km/h 90% 0.0 mm 0 W/m2
06:19 7.2 °C 5.6 °C 1009.3 hPa West 5 km/h 8 km/h 90% 0.0 mm 0 W/m2
06:24 7.1 °C 5.5 °C 1009.3 hPa West 8 km/h 8.7 km/h 89.2% 0.0 mm 0 W/m2
06:28 7.1 °C 5.4 °C 1009.4 hPa West 7.4 km/h 6 km/h 89% 0.0 mm 0 W/m2
06:33 7.1 °C 5.4 °C 1009.4 hPa WNW 5.2 km/h 11.3 km/h 89% 0.0 mm 0 W/m2
06:39 7 °C 5.4 °C 1009.4 hPa NW 4 km/h 3.9 km/h 89% 0.0 mm 0 W/m2
06:44 7 °C 5.3 °C 1009.4 hPa NW 7.5 km/h 6.8 km/h 89% 0.0 mm 0 W/m2
06:49 7 °C 5.3 °C 1009.5 hPa NW 5.5 km/h 9.7 km/h 89% 0.0 mm 0 W/m2
06:54 6.9 °C 5.3 °C 1009.5 hPa NW 9.3 km/h 9.2 km/h 89% 0.0 mm 0 W/m2
06:59 6.9 °C 5.3 °C 1009.6 hPa NW 5.3 km/h 4.5 km/h 89% 0.0 mm 0 W/m2
07:04 6.9 °C 5.3 °C 1009.6 hPa WNW 10.7 km/h 14.5 km/h 89% 0.0 mm 0 W/m2
07:09 6.9 °C 5.3 °C 1009.7 hPa WNW 7.8 km/h 8.5 km/h 89% 0.0 mm 0 W/m2
07:14 6.9 °C 5.3 °C 1009.8 hPa WNW 5.1 km/h 4.2 km/h 89% 0.0 mm 5 W/m2
07:18 6.9 °C 5.2 °C 1009.9 hPa WNW 4.3 km/h 11.3 km/h 89% 0.0 mm 5 W/m2
07:24 6.9 °C 5.3 °C 1010.0 hPa West 6.3 km/h 7.1 km/h 89% 0.0 mm 7 W/m2
07:29 6.9 °C 5.3 °C 1010.0 hPa NW 4.7 km/h 4.2 km/h 89% 0.0 mm 7 W/m2
07:33 6.9 °C 5.2 °C 1010.1 hPa Calm   9.7 km/h 89% 0.0 mm 11 W/m2
07:39 6.9 °C 5.2 °C 1010.1 hPa NW 4.2 km/h 3.7 km/h 89% 0.0 mm 12 W/m2
07:44 6.9 °C 5.2 °C 1010.2 hPa NW 5.6 km/h 4 km/h 89% 0.0 mm 16 W/m2
07:49 7 °C 5.3 °C 1010.3 hPa NW 0.8 km/h 8 km/h 89% 0.0 mm 18 W/m2
07:54 7.1 °C 5.5 °C 1010.2 hPa NNW 3.6 km/h 3.4 km/h 89.8% 0.0 mm 19 W/m2
07:59 7.1 °C 5.5 °C 1010.3 hPa NNW 6.8 km/h 6.9 km/h 89.5% 0.0 mm 23 W/m2
08:04 7.1 °C 5.4 °C 1010.4 hPa NNW 3.9 km/h 9.7 km/h 89% 0.0 mm 25 W/m2
08:09 7.1 °C 5.5 °C 1010.4 hPa NNW 3.1 km/h 2.3 km/h 89% 0.0 mm 28 W/m2
08:14 7.1 °C 5.5 °C 1010.4 hPa NNW 3.1 km/h 5 km/h 89% 0.0 mm 33 W/m2
08:19 7.1 °C 5.5 °C 1010.4 hPa North 1.9 km/h 8 km/h 89% 0.0 mm 40 W/m2
08:24 7.2 °C 5.5 °C 1010.4 hPa North 2.8 km/h 2.4 km/h 89% 0.0 mm 44 W/m2
08:28 7.2 °C 5.5 °C 1010.4 hPa Calm     89% 0.0 mm 49 W/m2
08:34 7.2 °C 5.6 °C 1010.5 hPa WNW 4.2 km/h 8 km/h 89% 0.0 mm 58 W/m2
08:39 7.3 °C 5.6 °C 1010.5 hPa WNW 4.2 km/h 3.1 km/h 89% 0.0 mm 63 W/m2
08:44 7.3 °C 5.7 °C 1010.6 hPa WNW 4.3 km/h 1.8 km/h 89% 0.0 mm 69 W/m2
08:49 7.4 °C 5.7 °C 1010.6 hPa WNW 3.1 km/h 4.8 km/h 89% 0.0 mm 76 W/m2
08:54 7.4 °C 5.7 °C 1010.6 hPa WNW 4.5 km/h 3.2 km/h 89% 0.0 mm 77 W/m2
08:59 7.5 °C 5.8 °C 1010.7 hPa West 4.2 km/h 3.1 km/h 89% 0.0 mm 86 W/m2
09:04 7.6 °C 5.9 °C 1010.8 hPa SW 6.8 km/h 9.7 km/h 89% 0.0 mm 83 W/m2
09:09 7.7 °C 6 °C 1011.0 hPa West 7.6 km/h 7.9 km/h 89% 0.0 mm 83 W/m2
09:14 7.8 °C 6 °C 1011.1 hPa West 4.7 km/h 5 km/h 89% 0.0 mm 84 W/m2
09:19 7.8 °C 6.1 °C 1011.1 hPa West 4.9 km/h 9.7 km/h 89% 0.0 mm 95 W/m2
09:24 7.9 °C 6.1 °C 1011.0 hPa West 5.3 km/h 5.6 km/h 89% 0.0 mm 109 W/m2
09:29 7.9 °C 6.2 °C 1011.0 hPa West 6.6 km/h 6 km/h 89% 0.0 mm 114 W/m2
09:34 8 °C 6.3 °C 1011.0 hPa WNW 6.1 km/h 9.7 km/h 88.7% 0.0 mm 118 W/m2
09:39 8.1 °C 6.2 °C 1011.0 hPa NW 5.9 km/h 4.3 km/h 88% 0.0 mm 132 W/m2
09:44 8.3 °C 6.4 °C 1010.9 hPa West 8.4 km/h 5.8 km/h 88% 0.0 mm 162 W/m2
09:48 8.4 °C 6.5 °C 1011.0 hPa West 3.1 km/h 9.7 km/h 88% 0.0 mm 178 W/m2
09:54 8.7 °C 6.8 °C 1011.0 hPa WSW 11.4 km/h 8 km/h 88% 0.0 mm 311 W/m2
09:59 8.9 °C 6.8 °C 1011.0 hPa West 9.5 km/h 7.4 km/h 87% 0.0 mm 165 W/m2
10:04 9.2 °C 7.1 °C 1010.9 hPa West 6.2 km/h 16.1 km/h 86.7% 0.0 mm 179 W/m2
10:09 9.3 °C 7 °C 1010.9 hPa WSW 7.6 km/h 5.1 km/h 85.4% 0.0 mm 165 W/m2
10:14 9.3 °C 6.8 °C 1011.0 hPa West 8.3 km/h 6.8 km/h 84.2% 0.0 mm 151 W/m2
10:19 9.3 °C 6.8 °C 1011.0 hPa WNW 5.8 km/h 9.7 km/h 84% 0.0 mm 120 W/m2
10:24 9.3 °C 6.6 °C 1011.0 hPa West 8.3 km/h 7.2 km/h 83% 0.0 mm 120 W/m2
10:29 9.3 °C 6.6 °C 1011.0 hPa West 8.7 km/h 8.4 km/h 83% 0.0 mm 139 W/m2
10:34 9.3 °C 6.6 °C 1011.0 hPa West 8.8 km/h 11.3 km/h 83% 0.0 mm 174 W/m2
10:39 9.3 °C 6.6 °C 1011.0 hPa WSW 6.9 km/h 5.6 km/h 83% 0.0 mm 193 W/m2
10:44 9.2 °C 6.5 °C 1011.0 hPa WSW 5.1 km/h 4.2 km/h 83% 0.0 mm 200 W/m2
10:49 9.3 °C 6.5 °C 1011.0 hPa WSW 5.9 km/h 9.7 km/h 83% 0.0 mm 264 W/m2
10:54 9.4 °C 6.6 °C 1011.0 hPa WSW 7.9 km/h 5.3 km/h 83% 0.0 mm 200 W/m2
10:59 9.5 °C 6.6 °C 1011.0 hPa WSW 5.3 km/h 5.3 km/h 82.4% 0.0 mm 204 W/m2
11:04 9.6 °C 6.6 °C 1011.0 hPa WNW 8 km/h 9.7 km/h 82% 0.0 mm 216 W/m2
11:09 9.7 °C 6.6 °C 1011.1 hPa WSW 6.1 km/h 2.9 km/h 81.3% 0.0 mm 250 W/m2
11:14 9.8 °C 6.7 °C 1011.1 hPa WSW 5.1 km/h 4.7 km/h 81% 0.0 mm 251 W/m2
11:19 10 °C 6.8 °C 1011.1 hPa SW 7.6 km/h 8 km/h 80.7% 0.0 mm 316 W/m2
11:24 10.1 °C 6.8 °C 1011.2 hPa SW 8 km/h 4.8 km/h 80% 0.0 mm 320 W/m2
11:29 10.3 °C 6.9 °C 1011.2 hPa West 7.5 km/h 4.8 km/h 79.5% 0.0 mm 253 W/m2
11:34 10.5 °C 6.8 °C 1011.1 hPa West 8.4 km/h 12.9 km/h 78.2% 0.0 mm 292 W/m2
11:39 10.6 °C 6.7 °C 1011.2 hPa West 6 km/h 7.4 km/h 77.2% 0.0 mm 434 W/m2
11:44 10.7 °C 6.8 °C 1011.2 hPa West 6.9 km/h 6 km/h 77% 0.0 mm 471 W/m2
11:49 11 °C 7.1 °C 1011.1 hPa West 9 km/h 11.3 km/h 76.6% 0.0 mm 494 W/m2
11:53 11.3 °C 7.1 °C 1011.2 hPa West 7.5 km/h 8.5 km/h 75.4% 0.0 mm 392 W/m2
11:59 11.4 °C 7 °C 1011.2 hPa West 10.4 km/h 10.5 km/h 74.2% 0.0 mm 459 W/m2
12:04 11.6 °C 7 °C 1011.2 hPa WSW 7.3 km/h 12.9 km/h 73.6% 0.0 mm 459 W/m2
12:09 11.6 °C 6.9 °C 1011.2 hPa WSW 6.7 km/h 5.5 km/h 73% 0.0 mm 615 W/m2
12:14 11.7 °C 6.8 °C 1011.2 hPa WSW 9.8 km/h 10.5 km/h 72% 0.0 mm 615 W/m2
12:19 11.9 °C 6.8 °C 1011.2 hPa WNW 10 km/h 14.5 km/h 71% 0.0 mm 615 W/m2
12:24 12.2 °C 6.8 °C 1011.2 hPa NW 9.2 km/h 6.9 km/h 70% 0.0 mm 591 W/m2
12:29 12.5 °C 7 °C 1011.3 hPa WSW 6.5 km/h 6.8 km/h 69.3% 0.0 mm 622 W/m2
12:34 12.7 °C 7.2 °C 1011.3 hPa West 7.7 km/h 12.9 km/h 69% 0.0 mm 624 W/m2
12:38 12.9 °C 7 °C 1011.3 hPa WSW 7.2 km/h 5 km/h 67.4% 0.0 mm 631 W/m2
12:44 12.8 °C 6.8 °C 1011.2 hPa West 7.6 km/h 6.9 km/h 67% 0.0 mm 283 W/m2
12:49 12.9 °C 6.9 °C 1011.2 hPa WNW 5.6 km/h 9.7 km/h 66.8% 0.0 mm 606 W/m2
12:54 13 °C 6.9 °C 1011.2 hPa WNW 6.9 km/h 5.8 km/h 66.5% 0.0 mm 292 W/m2
12:59 13 °C 6.7 °C 1011.2 hPa NW 7.5 km/h 6.1 km/h 65.9% 0.0 mm 668 W/m2
13:04 13.1 °C 6.9 °C 1011.2 hPa SW 8 km/h 14 km/h 66% 0.0 mm 338 W/m2
13:09 13.2 °C 7 °C 1011.2 hPa West 10.9 km/h 10.1 km/h 66% 0.0 mm 592 W/m2
13:14 13.5 °C 7.1 °C 1011.2 hPa WSW 7.2 km/h 6.4 km/h 65.4% 0.0 mm 573 W/m2
13:19 13.6 °C 7 °C 1011.2 hPa West 4.3 km/h 17.7 km/h 64.5% 0.0 mm 559 W/m2
13:24 13.6 °C 6.9 °C 1011.2 hPa West 7 km/h 6.9 km/h 63.6% 0.0 mm 302 W/m2
13:28 13.5 °C 6.7 °C 1011.2 hPa WSW 8.4 km/h 6.6 km/h 63.2% 0.0 mm 508 W/m2
13:34 13.2 °C 6.2 °C 1011.2 hPa SW 6.4 km/h 9.7 km/h 62.5% 0.0 mm 503 W/m2
13:39 13.1 °C 6.3 °C 1011.2 hPa WNW 5.3 km/h 4.2 km/h 63.4% 0.0 mm 503 W/m2
13:44 13.2 °C 6.2 °C 1011.2 hPa WNW 9.7 km/h 7.7 km/h 62.3% 0.0 mm 489 W/m2
13:49 13.3 °C 6.2 °C 1011.3 hPa West 6.1 km/h 12.9 km/h 62% 0.0 mm 492 W/m2
13:54 13.4 °C 6.3 °C 1011.3 hPa WSW 5 km/h 4.5 km/h 62% 0.0 mm 445 W/m2
13:59 13.3 °C 6.2 °C 1011.3 hPa WNW 8.4 km/h 6 km/h 62% 0.0 mm 517 W/m2
14:04 13.2 °C 6 °C 1011.2 hPa SW 6.4 km/h 12.9 km/h 61.8% 0.0 mm 490 W/m2
14:09 13.1 °C 6 °C 1011.3 hPa West 6.8 km/h 5.6 km/h 62.2% 0.0 mm 476 W/m2
14:14 13.2 °C 6.3 °C 1011.2 hPa NW 4.7 km/h 3.7 km/h 62.8% 0.0 mm 471 W/m2
14:19 13.3 °C 6.2 °C 1011.2 hPa West 8.8 km/h 12.9 km/h 62% 0.0 mm 466 W/m2
14:24 13.3 °C 5.9 °C 1011.2 hPa West 6.7 km/h 6.3 km/h 61% 0.0 mm 457 W/m2
14:28 13.3 °C 6.1 °C 1011.1 hPa West 8.4 km/h 7.4 km/h 61.5% 0.0 mm 457 W/m2
14:34 13.3 °C 5.5 °C 1011.1 hPa West 6.5 km/h 9.7 km/h 59.1% 0.0 mm 462 W/m2
14:39 13.4 °C 4.7 °C 1011.2 hPa West 8.2 km/h 7.1 km/h 55.8% 0.0 mm 469 W/m2
14:44 13.4 °C 4.8 °C 1011.1 hPa West 9.2 km/h 6.1 km/h 56% 0.0 mm 387 W/m2
14:49 13.4 °C 4.6 °C 1011.1 hPa NW 9.8 km/h 14.5 km/h 55.3% 0.0 mm 388 W/m2
14:54 13.4 °C 4.6 °C 1011.1 hPa WNW 11.1 km/h 10.9 km/h 55.3% 0.0 mm 431 W/m2
14:59 13.5 °C 5.1 °C 1011.1 hPa WNW 10.6 km/h 7.7 km/h 57% 0.0 mm 429 W/m2
15:04 13.5 °C 5.2 °C 1011.0 hPa NNW 7.5 km/h 12.9 km/h 57% 0.0 mm 200 W/m2
15:09 13.3 °C 5 °C 1011.0 hPa WNW 7.6 km/h 8.7 km/h 57% 0.0 mm 434 W/m2
15:14 13.3 °C 4.7 °C 1011.0 hPa NW 7.3 km/h 6.1 km/h 55.8% 0.0 mm 406 W/m2
15:19 13.2 °C 3.9 °C 1010.9 hPa NNW 7.6 km/h 11.3 km/h 53.3% 0.0 mm 397 W/m2
15:24 13.1 °C 4.3 °C 1010.9 hPa NNW 7.5 km/h 5 km/h 55% 0.0 mm 387 W/m2
15:29 13 °C 4.4 °C 1010.9 hPa NW 8.3 km/h 6.8 km/h 55.5% 0.0 mm 369 W/m2
15:34 13 °C 4.3 °C 1010.9 hPa NNW 2.6 km/h 9.7 km/h 55.6% 0.0 mm 54 W/m2
15:39 12.8 °C 4.2 °C 1010.9 hPa West 4.4 km/h 3.4 km/h 55.8% 0.0 mm 54 W/m2
15:44 12.7 °C 4.1 °C 1010.9 hPa SW 5.2 km/h 3.2 km/h 56% 0.0 mm 54 W/m2
15:49 12.6 °C 4.3 °C 1010.9 hPa West 6.4 km/h 8 km/h 57.2% 0.0 mm 56 W/m2
15:53 12.4 °C 4.4 °C 1010.9 hPa WNW 5.2 km/h 3.4 km/h 58% 0.0 mm 58 W/m2
15:59 12.3 °C 4.7 °C 1010.8 hPa NW 4 km/h 2.7 km/h 59.5% 0.0 mm 58 W/m2
16:04 12.2 °C 4.4 °C 1010.8 hPa NNE 10.8 km/h 12.9 km/h 59.2% 0.0 mm 56 W/m2
16:09 12 °C 4.4 °C 1010.9 hPa NNW 10 km/h 6.9 km/h 60% 0.0 mm 54 W/m2
16:14 11.9 °C 4.9 °C 1010.9 hPa NNW 11.3 km/h 9.3 km/h 62% 0.0 mm 53 W/m2
16:19 11.8 °C 5 °C 1010.8 hPa NW 6.8 km/h 14.5 km/h 63.3% 0.0 mm 49 W/m2
16:24 11.7 °C 5.3 °C 1010.9 hPa NNW 6.5 km/h 5.3 km/h 64.8% 0.0 mm 47 W/m2
16:29 11.6 °C 5.1 °C 1010.9 hPa North 9.2 km/h 8.9 km/h 64.6% 0.0 mm 46 W/m2
16:34 11.5 °C 5.1 °C 1010.9 hPa NNW 8.7 km/h 12.9 km/h 65% 0.0 mm 40 W/m2
16:39 11.2 °C 4.9 °C 1010.9 hPa NNE 11.9 km/h 12.2 km/h 65% 0.0 mm 39 W/m2
16:44 11 °C 4.7 °C 1011.0 hPa NNE 12.4 km/h 11.6 km/h 65.3% 0.0 mm 37 W/m2
16:49 10.8 °C 4.7 °C 1011.0 hPa NNW 8.9 km/h 14.5 km/h 66.3% 0.0 mm 35 W/m2
16:54 10.8 °C 4.9 °C 1011.0 hPa NNW 10.5 km/h 5.5 km/h 67% 0.0 mm 33 W/m2
16:59 10.7 °C 4.7 °C 1011.0 hPa NNW 11.9 km/h 8.5 km/h 66.4% 0.0 mm 33 W/m2
17:04 10.6 °C 4.7 °C 1011.1 hPa NNW 6 km/h 16.1 km/h 67% 0.0 mm 32 W/m2
17:09 10.6 °C 4.7 °C 1011.1 hPa NNW 6.2 km/h 4.5 km/h 67% 0.0 mm 30 W/m2
17:14 10.5 °C 4.6 °C 1011.0 hPa North 7.8 km/h 5.3 km/h 67% 0.0 mm 28 W/m2
17:19 10.4 °C 4.5 °C 1011.1 hPa North 3.9 km/h 9.7 km/h 67.1% 0.0 mm 28 W/m2
17:24 10.3 °C 4.6 °C 1011.1 hPa North 7.6 km/h 5.8 km/h 67.6% 0.0 mm 26 W/m2
17:29 10.3 °C 4.4 °C 1011.2 hPa North 4.8 km/h 4.3 km/h 67.2% 0.0 mm 23 W/m2
17:34 10.3 °C 5.3 °C 1011.2 hPa NE 6.9 km/h 9.7 km/h 71.3% 0.0 mm 21 W/m2
17:39 10.1 °C 5.9 °C 1011.2 hPa East 7.4 km/h 8.4 km/h 75.2% 0.0 mm 19 W/m2
17:43 9.8 °C 6 °C 1011.2 hPa ENE 6.9 km/h 5 km/h 77.3% 0.0 mm 18 W/m2
17:49 9.6 °C 6.1 °C 1011.3 hPa NNE 7 km/h 11.3 km/h 78.7% 0.0 mm 14 W/m2
17:54 9.4 °C 6.2 °C 1011.3 hPa ENE 6.1 km/h 6.1 km/h 80.8% 0.0 mm 12 W/m2
17:59 9 °C 6.2 °C 1011.3 hPa ENE 8.7 km/h 7.9 km/h 82.4% 0.0 mm 11 W/m2
18:04 8.8 °C 6.2 °C 1011.4 hPa East 8.7 km/h 11.3 km/h 83.6% 0.0 mm 9 W/m2
18:09 8.6 °C 6 °C 1011.5 hPa ENE 7.1 km/h 5 km/h 84.2% 0.0 mm 7 W/m2
18:14 8.4 °C 6.1 °C 1011.5 hPa ENE 5.1 km/h 4.5 km/h 85% 0.0 mm 5 W/m2
18:19 8.3 °C 6 °C 1011.5 hPa NNE 5.3 km/h 9.7 km/h 85.9% 0.0 mm 0 W/m2
18:24 8.2 °C 6 °C 1011.5 hPa NNE 4 km/h 3.1 km/h 86.4% 0.0 mm 0 W/m2
18:29 8.1 °C 6 °C 1011.5 hPa NNE 4.5 km/h 4 km/h 86.8% 0.0 mm 0 W/m2
18:34 8 °C 6 °C 1011.5 hPa NNE 4.1 km/h 4.8 km/h 87% 0.0 mm 0 W/m2
18:39 7.9 °C 5.8 °C 1011.5 hPa NNE 7.6 km/h 5.5 km/h 87% 0.0 mm 0 W/m2
18:44 7.8 °C 5.8 °C 1011.5 hPa NNE 5.1 km/h 4.2 km/h 87.5% 0.0 mm 0 W/m2
18:48 7.7 °C 5.8 °C 1011.5 hPa NNE 6.2 km/h 9.7 km/h 88% 0.0 mm 0 W/m2
18:54 7.6 °C 5.7 °C 1011.6 hPa NNE 3.7 km/h 2.9 km/h 88% 0.0 mm 0 W/m2
18:59 7.5 °C 5.7 °C 1011.5 hPa NNE 4.8 km/h 2.9 km/h 88% 0.0 mm 0 W/m2
19:04 7.4 °C 5.7 °C 1011.6 hPa NE 5.4 km/h 8 km/h 88.5% 0.0 mm 0 W/m2
19:09 7.4 °C 5.7 °C 1011.6 hPa NE 4.7 km/h 3.4 km/h 89% 0.0 mm 0 W/m2
19:14 7.3 °C 5.7 °C 1011.7 hPa NE 3.9 km/h 2.6 km/h 89% 0.0 mm 0 W/m2
19:19 7.3 °C 5.6 °C 1011.7 hPa NE 3.6 km/h 8 km/h 89% 0.0 mm 0 W/m2
19:24 7.2 °C 5.6 °C 1011.7 hPa NE 5.6 km/h 4.2 km/h 89% 0.0 mm 0 W/m2
19:29 7.1 °C 5.5 °C 1011.7 hPa NE 4.3 km/h 3.4 km/h 89% 0.0 mm 0 W/m2
19:34 7.1 °C 5.5 °C 1011.7 hPa NE 4.1 km/h 8 km/h 89.6% 0.0 mm 0 W/m2
19:39 7 °C 5.4 °C 1011.7 hPa NE 4.8 km/h 2.9 km/h 89.4% 0.0 mm 0 W/m2
19:44 6.9 °C 5.4 °C 1011.7 hPa NE 2.8 km/h 2.9 km/h 90% 0.0 mm 0 W/m2
19:49 6.9 °C 5.4 °C 1011.8 hPa NE 3.3 km/h 4.8 km/h 90% 0.0 mm 0 W/m2
19:54 6.8 °C 5.3 °C 1011.7 hPa NE 3.3 km/h 1.9 km/h 90% 0.0 mm 0 W/m2
19:59 6.8 °C 5.3 °C 1011.7 hPa NE 2.5 km/h 2.3 km/h 90% 0.0 mm 0 W/m2
20:04 6.7 °C 5.2 °C 1011.8 hPa NE 4 km/h 4.8 km/h 90% 0.0 mm 0 W/m2
20:09 6.7 °C 5.2 °C 1011.8 hPa NE 3.7 km/h 2.4 km/h 90% 0.0 mm 0 W/m2
20:14 6.7 °C 5.3 °C 1011.8 hPa NE 3.6 km/h 2.1 km/h 91% 0.0 mm 0 W/m2
20:18 6.7 °C 5.3 °C 1011.8 hPa NE 3.2 km/h 4.8 km/h 91% 0.0 mm 0 W/m2
20:24 6.6 °C 5.2 °C 1011.8 hPa NE 3.7 km/h 2.7 km/h 91% 0.0 mm 0 W/m2
20:29 6.6 °C 5.2 °C 1011.8 hPa ENE 6.2 km/h 4.2 km/h 91% 0.0 mm 0 W/m2
20:34 6.6 °C 5.2 °C 1011.9 hPa NE 5.4 km/h 8 km/h 91% 0.0 mm 0 W/m2
20:39 6.6 °C 5.2 °C 1011.8 hPa NE 5.1 km/h 3.7 km/h 91% 0.0 mm 0 W/m2
20:44 6.6 °C 5.2 °C 1011.8 hPa ENE 4.1 km/h 2.1 km/h 91% 0.0 mm 0 W/m2
20:49 6.6 °C 5.2 °C 1011.8 hPa ENE 4.3 km/h 4.8 km/h 91% 0.0 mm 0 W/m2
20:54 6.6 °C 5.2 °C 1011.8 hPa ENE 3.8 km/h 2.7 km/h 91% 0.0 mm 0 W/m2
20:59 6.6 °C 5.2 °C 1011.8 hPa ENE 2.8 km/h 1.6 km/h 91% 0.0 mm 0 W/m2
21:04 6.5 °C 5.2 °C 1011.8 hPa ENE 2.3 km/h 4.8 km/h 91% 0.0 mm 0 W/m2
21:09 6.5 °C 5.2 °C 1011.8 hPa ENE 4.3 km/h 3.2 km/h 91.7% 0.0 mm 0 W/m2
21:14 6.4 °C 5.2 °C 1011.8 hPa ENE 4.4 km/h 3.1 km/h 91.6% 0.0 mm 0 W/m2
21:19 6.5 °C 5.2 °C 1011.8 hPa ENE 3.7 km/h 4.8 km/h 92% 0.0 mm 0 W/m2
21:24 6.4 °C 5.2 °C 1011.9 hPa ENE 4.8 km/h 4.2 km/h 92% 0.0 mm 0 W/m2
21:28 6.5 °C 5.3 °C 1011.9 hPa ENE 5.2 km/h 3.1 km/h 92% 0.0 mm 0 W/m2
21:34 6.5 °C 5.2 °C 1011.9 hPa ENE 3.4 km/h 4.8 km/h 92% 0.0 mm 0 W/m2
21:39 6.4 °C 5.2 °C 1011.9 hPa ENE 3 km/h 2.7 km/h 92% 0.0 mm 0 W/m2
21:43 6.4 °C 5.2 °C 1011.9 hPa ENE 4.1 km/h 1.9 km/h 92% 0.0 mm 0 W/m2
21:49 6.4 °C 5.2 °C 1011.9 hPa ENE 1.9 km/h 4.8 km/h 92% 0.0 mm 0 W/m2
21:54 6.4 °C 5.2 °C 1011.9 hPa ENE 3.2 km/h 2.4 km/h 92% 0.0 mm 0 W/m2
21:59 6.4 °C 5.3 °C 1011.9 hPa ENE 2.2 km/h 1.1 km/h 93% 0.0 mm 0 W/m2
22:04 6.4 °C 5.3 °C 1012.0 hPa ENE 2.7 km/h 3.2 km/h 93% 0.0 mm 0 W/m2
22:09 6.4 °C 5.4 °C 1012.0 hPa ENE 1.9 km/h 0.5 km/h 93% 0.0 mm 0 W/m2
22:14 6.4 °C 5.4 °C 1011.9 hPa ENE 3.7 km/h 1.8 km/h 93% 0.0 mm 0 W/m2
22:19 6.4 °C 5.4 °C 1011.9 hPa ENE 4.9 km/h 4.8 km/h 93% 0.0 mm 0 W/m2
22:24 6.4 °C 5.4 °C 1011.9 hPa ENE 2.3 km/h 1.8 km/h 93% 0.0 mm 0 W/m2
22:29 6.4 °C 5.4 °C 1011.9 hPa ENE 0.9 km/h 1.1 km/h 93% 0.0 mm 0 W/m2
22:34 6.3 °C 5.3 °C 1011.9 hPa ENE 0.4 km/h 4.8 km/h 93% 0.0 mm 0 W/m2
22:39 6.3 °C 5.2 °C 1011.9 hPa Calm     93% 0.0 mm 0 W/m2
22:44 6.2 °C 5.1 °C 1011.9 hPa Calm     93% 0.0 mm 0 W/m2
22:49 6.1 °C 5 °C 1011.9 hPa Calm     93% 0.0 mm 0 W/m2
22:54 6 °C 4.9 °C 1011.9 hPa Calm     93% 0.0 mm 0 W/m2
22:59 5.9 °C 4.9 °C 1011.8 hPa Calm     93% 0.0 mm 0 W/m2
Weerpagina Nieuwendam
Compliments of Weather Underground - 3.25 mb